Terminal Aerodrome Forecast
Issued by NWS Des Moines, IA

Home | Current Version | Previous Version | Text Only | Print | Product List | Glossary On
Versions: 1 2 3 4 5 6 7 8 9 10 11 12 13 14 15 16 17 18 19 20 21 22 23 24 25 26 27 28 29 30 31 32 33 34 35 36
000
FTUS43 KDMX 291939 AAA
TAFALO
TAF AMD
KALO 291939Z 2920/3018 29014G21KT P6SM VCSH BKN070
     FM300300 28005KT P6SM SCT070 BKN120
     FM301400 28009KT P6SM SCT180
     FM301600 28011G20KT P6SM SCT060=

USA.gov is the U.S. government's official web portal to all federal, state and local government web resources and services.